Time;durP1;ratioP1;P1;durP2;ratioP2;P2;SDS_P1;SDS_P2;PMS_P1;PMS_P2;Temp;Humidity;BMP_temperature;BMP_pressure;BME280_temperature;BME280_humidity;BME280_pressure;Samples;Min_cycle;Max_cycle;Signal;HPM_P1;HPM_P2
2023/07/31 00:01:26;;;;;;;4.65;2.47;;;12.60;99.90;;;;;;5078968;28;20033;-87
2023/07/31 00:03:52;;;;;;;6.45;2.55;;;12.70;99.90;;;;;;5083809;28;20023;-85
2023/07/31 00:06:18;;;;;;;7.38;2.85;;;12.70;99.90;;;;;;5069751;28;20051;-86
2023/07/31 00:08:44;;;;;;;5.90;2.67;;;12.70;99.90;;;;;;5055802;28;20441;-88
2023/07/31 00:11:09;;;;;;;4.57;2.80;;;12.70;99.90;;;;;;5073822;28;20099;-87
2023/07/31 00:13:35;;;;;;;7.68;2.90;;;12.70;99.90;;;;;;5079440;28;20427;-87
2023/07/31 00:16:01;;;;;;;7.30;2.90;;;12.70;99.90;;;;;;5058895;28;20032;-85
2023/07/31 00:18:27;;;;;;;5.53;2.78;;;12.70;99.90;;;;;;5039905;28;20037;-85
2023/07/31 00:20:53;;;;;;;2.70;2.38;;;12.70;99.90;;;;;;5059063;28;20025;-86
2023/07/31 00:23:19;;;;;;;4.50;2.47;;;12.70;99.90;;;;;;5068789;28;20085;-86
2023/07/31 00:25:45;;;;;;;6.75;2.80;;;12.60;99.90;;;;;;5038801;28;20024;-85
2023/07/31 00:28:10;;;;;;;7.47;3.15;;;12.70;99.90;;;;;;5053239;28;20505;-85
2023/07/31 00:30:36;;;;;;;5.57;2.90;;;12.70;99.90;;;;;;5071882;28;20024;-84
2023/07/31 00:33:02;;;;;;;8.07;2.95;;;12.70;99.90;;;;;;5080665;28;20033;-87
2023/07/31 00:35:29;;;;;;;5.45;2.55;;;12.80;99.90;;;;;;5081096;28;20029;-87
2023/07/31 00:37:58;;;;;;;5.68;2.63;;;12.80;99.90;;;;;;5045717;28;20128;-85
2023/07/31 00:40:24;;;;;;;8.55;2.53;;;12.80;99.90;;;;;;5057604;28;20040;-87
2023/07/31 00:42:50;;;;;;;4.18;2.70;;;12.80;99.90;;;;;;5077201;28;20024;-86
2023/07/31 00:45:16;;;;;;;4.82;2.42;;;12.80;99.90;;;;;;5059862;28;20074;-84
2023/07/31 00:47:45;;;;;;;10.60;2.97;;;12.80;99.90;;;;;;5081787;28;20031;-84
2023/07/31 00:50:11;;;;;;;5.22;2.58;;;12.80;99.90;;;;;;5066419;28;20029;-85
2023/07/31 00:52:38;;;;;;;7.15;2.88;;;12.80;99.90;;;;;;5047156;28;20051;-85
2023/07/31 00:55:04;;;;;;;8.32;3.33;;;12.80;99.90;;;;;;5073474;28;20780;-85
2023/07/31 00:57:32;;;;;;;6.18;2.58;;;12.80;99.90;;;;;;5069928;28;20033;-84
2023/07/31 00:59:58;;;;;;;5.55;2.85;;;12.80;99.90;;;;;;5055659;28;20040;-85
2023/07/31 01:02:24;;;;;;;7.53;2.92;;;12.90;99.90;;;;;;5037088;28;20040;-86
2023/07/31 01:04:52;;;;;;;4.68;2.55;;;12.90;99.90;;;;;;5049092;28;20107;-85
2023/07/31 01:07:38;;;;;;;7.43;2.65;;;12.90;99.90;;;;;;5056866;28;20032;-84
2023/07/31 01:10:13;;;;;;;;;;;12.90;99.90;;;;;;5056826;28;20024;-85
2023/07/31 01:12:40;;;;;;;5.40;2.47;;;13.00;99.90;;;;;;5065045;28;19912;-86
2023/07/31 01:15:10;;;;;;;8.15;2.53;;;13.00;99.90;;;;;;5068870;28;20043;-86
2023/07/31 01:17:40;;;;;;;7.78;3.13;;;13.10;99.90;;;;;;5084130;28;20365;-85
2023/07/31 01:20:11;;;;;;;4.85;2.60;;;13.10;99.90;;;;;;5059227;28;20024;-86
2023/07/31 01:23:08;;;;;;;5.05;2.17;;;13.10;99.90;;;;;;5046531;28;20765;-86
2023/07/31 01:25:56;;;;;;;6.15;2.50;;;13.10;99.90;;;;;;5076739;28;20228;-86
2023/07/31 01:28:28;;;;;;;9.07;2.40;;;13.10;99.90;;;;;;5069757;28;20037;-83
2023/07/31 01:30:58;;;;;;;6.13;2.50;;;13.20;99.90;;;;;;5073332;28;20058;-83
2023/07/31 01:33:24;;;;;;;5.70;2.45;;;13.10;99.90;;;;;;5078228;28;20091;-85
2023/07/31 01:35:51;;;;;;;5.80;2.10;;;13.20;99.90;;;;;;5059748;28;20505;-84
2023/07/31 01:38:21;;;;;;;6.65;2.60;;;13.10;99.90;;;;;;5080249;28;20588;-83
2023/07/31 01:40:52;;;;;;;8.30;2.50;;;13.20;99.90;;;;;;5075820;28;20043;-84
2023/07/31 01:43:18;;;;;;;4.60;2.60;;;13.20;99.90;;;;;;5087311;28;20032;-85
2023/07/31 01:45:44;;;;;;;6.82;2.88;;;13.20;99.90;;;;;;5089735;28;20060;-85
2023/07/31 01:48:09;;;;;;;4.10;2.53;;;13.30;99.90;;;;;;5068569;28;20112;-85
2023/07/31 01:50:35;;;;;;;5.75;2.60;;;13.30;99.90;;;;;;5075182;28;20104;-85
2023/07/31 01:53:01;;;;;;;5.72;2.90;;;13.30;99.90;;;;;;5073132;28;20048;-85
2023/07/31 01:55:27;;;;;;;9.98;2.60;;;13.30;99.90;;;;;;5067662;28;20037;-85
2023/07/31 01:57:53;;;;;;;6.15;2.50;;;13.30;99.90;;;;;;5062905;28;20036;-86
2023/07/31 02:00:19;;;;;;;8.05;2.50;;;13.30;99.90;;;;;;5068618;28;20043;-86
2023/07/31 02:02:45;;;;;;;5.85;2.35;;;13.30;99.90;;;;;;5075469;28;20032;-83
2023/07/31 02:05:10;;;;;;;5.55;2.40;;;13.30;99.90;;;;;;5061013;28;20036;-82
2023/07/31 02:07:37;;;;;;;4.53;2.33;;;13.40;99.90;;;;;;5080475;28;20601;-84
2023/07/31 02:10:03;;;;;;;5.88;2.28;;;13.40;99.90;;;;;;5063398;28;20049;-83
2023/07/31 02:12:31;;;;;;;6.78;2.10;;;13.40;99.90;;;;;;5086745;28;20543;-83
2023/07/31 02:14:57;;;;;;;8.73;2.72;;;13.40;99.90;;;;;;5076355;28;20040;-85
2023/07/31 02:17:24;;;;;;;11.52;2.45;;;13.40;99.90;;;;;;5064227;28;20029;-84
2023/07/31 02:19:50;;;;;;;6.57;2.75;;;13.50;99.90;;;;;;5040751;28;20025;-84
2023/07/31 02:22:19;;;;;;;5.35;2.50;;;13.40;99.90;;;;;;5048997;28;20054;-87
2023/07/31 02:24:45;;;;;;;3.85;2.15;;;13.40;99.90;;;;;;5069656;28;20542;-84
2023/07/31 02:27:10;;;;;;;5.90;2.33;;;13.40;99.90;;;;;;5074033;28;20099;-83
2023/07/31 02:29:36;;;;;;;6.40;2.20;;;13.40;99.90;;;;;;5053442;28;20036;-84
2023/07/31 02:32:02;;;;;;;6.28;2.30;;;13.40;99.90;;;;;;5057921;28;20118;-84
2023/07/31 02:34:28;;;;;;;5.85;2.47;;;13.40;99.90;;;;;;5042133;28;20041;-84
2023/07/31 02:36:54;;;;;;;6.35;2.40;;;13.40;99.90;;;;;;5071290;28;20032;-84
2023/07/31 02:39:20;;;;;;;4.47;2.05;;;13.40;99.90;;;;;;5055471;28;20040;-85
2023/07/31 02:41:46;;;;;;;2.35;1.88;;;13.40;99.90;;;;;;5051499;28;20028;-84
2023/07/31 02:44:14;;;;;;;5.57;2.63;;;13.40;99.90;;;;;;5069710;28;20281;-86
2023/07/31 02:46:40;;;;;;;5.35;2.33;;;13.40;99.90;;;;;;5081716;28;20036;-84
2023/07/31 02:49:06;;;;;;;4.60;1.98;;;13.40;99.90;;;;;;5035637;28;20845;-84
2023/07/31 02:51:32;;;;;;;7.93;2.58;;;13.40;99.90;;;;;;5061932;28;20033;-84
2023/07/31 02:53:57;;;;;;;5.68;2.30;;;13.40;99.90;;;;;;5062281;28;20033;-83
2023/07/31 02:56:23;;;;;;;8.45;2.72;;;13.40;99.90;;;;;;5080019;28;20035;-83
2023/07/31 02:58:49;;;;;;;7.28;2.42;;;13.50;99.90;;;;;;5062991;28;20169;-86
2023/07/31 03:01:15;;;;;;;7.13;2.60;;;13.50;99.90;;;;;;5058881;28;20044;-88
2023/07/31 03:03:41;;;;;;;4.28;2.00;;;13.40;99.90;;;;;;5069004;28;20051;-88
2023/07/31 03:06:07;;;;;;;7.97;2.72;;;13.50;99.90;;;;;;5089862;28;20025;-86
2023/07/31 03:08:33;;;;;;;8.43;2.92;;;13.50;99.90;;;;;;5063723;28;20040;-89
2023/07/31 03:10:59;;;;;;;2.90;2.05;;;13.60;99.90;;;;;;5043000;28;20063;-88
2023/07/31 03:13:24;;;;;;;6.05;2.25;;;13.60;99.90;;;;;;5086838;28;20037;-87
2023/07/31 03:15:50;;;;;;;4.13;2.40;;;13.60;99.90;;;;;;5094792;28;20647;-88
2023/07/31 03:18:16;;;;;;;6.32;2.45;;;13.60;99.90;;;;;;5082895;28;20044;-87
2023/07/31 03:20:43;;;;;;;4.95;1.80;;;13.60;99.90;;;;;;5089567;28;20038;-86
2023/07/31 03:23:09;;;;;;;6.60;2.17;;;13.60;99.90;;;;;;5069986;28;20115;-89
2023/07/31 03:25:35;;;;;;;4.30;2.35;;;13.60;99.90;;;;;;5080207;28;20074;-86
2023/07/31 03:28:01;;;;;;;5.28;2.25;;;13.70;99.90;;;;;;5080594;28;20025;-87
2023/07/31 03:30:29;;;;;;;7.00;2.13;;;13.70;99.90;;;;;;5044523;28;20039;-88
2023/07/31 03:32:54;;;;;;;2.97;2.38;;;13.70;99.90;;;;;;5036197;28;20029;-87
2023/07/31 03:35:20;;;;;;;5.60;2.30;;;13.70;99.90;;;;;;5065423;28;20040;-86
2023/07/31 03:37:47;;;;;;;6.00;2.50;;;13.70;99.90;;;;;;5054921;28;20024;-85
2023/07/31 03:40:12;;;;;;;8.90;2.63;;;13.80;99.90;;;;;;5039563;28;20031;-87
2023/07/31 03:42:38;;;;;;;4.85;2.38;;;13.80;99.90;;;;;;5046550;28;20104;-87
2023/07/31 03:45:04;;;;;;;4.00;2.35;;;13.90;99.90;;;;;;5049651;28;20028;-86
2023/07/31 03:47:30;;;;;;;5.07;2.20;;;13.80;99.90;;;;;;5067580;28;20665;-89
2023/07/31 03:49:56;;;;;;;6.18;2.38;;;13.90;99.90;;;;;;5082035;28;20029;-86
2023/07/31 03:52:22;;;;;;;6.45;1.90;;;13.90;99.90;;;;;;5028009;28;20044;-85
2023/07/31 03:54:47;;;;;;;3.70;2.13;;;13.90;99.90;;;;;;5063120;28;20048;-85
2023/07/31 03:57:13;;;;;;;6.78;2.72;;;13.90;99.90;;;;;;5026912;28;20033;-84
2023/07/31 03:59:39;;;;;;;5.32;2.75;;;13.90;99.90;;;;;;5035185;28;20070;-86
2023/07/31 04:02:05;;;;;;;5.82;2.10;;;13.90;99.90;;;;;;5067863;28;20028;-87
2023/07/31 04:04:31;;;;;;;3.80;1.90;;;13.90;99.90;;;;;;5059811;28;20074;-83
2023/07/31 04:06:56;;;;;;;4.10;2.55;;;13.90;99.90;;;;;;5063113;28;20423;-85
2023/07/31 04:09:22;;;;;;;7.65;2.33;;;13.90;99.90;;;;;;5063767;28;20444;-83
2023/07/31 04:11:48;;;;;;;9.00;2.33;;;13.90;99.90;;;;;;5058236;28;20466;-83
2023/07/31 04:14:14;;;;;;;5.55;2.30;;;13.90;99.90;;;;;;5048413;28;20055;-83
2023/07/31 04:16:40;;;;;;;5.05;1.90;;;13.90;99.90;;;;;;5078677;28;20115;-84
2023/07/31 04:19:06;;;;;;;7.43;1.80;;;14.00;99.90;;;;;;5062745;28;20056;-83
2023/07/31 04:21:31;;;;;;;6.55;2.30;;;14.00;99.90;;;;;;5039356;28;20519;-84
2023/07/31 04:23:58;;;;;;;4.93;2.25;;;14.00;99.90;;;;;;5064405;28;20032;-83
2023/07/31 04:26:24;;;;;;;4.88;2.00;;;13.90;99.90;;;;;;5078284;28;20658;-83
2023/07/31 04:28:49;;;;;;;4.53;2.13;;;14.00;99.90;;;;;;5054456;28;20028;-84
2023/07/31 04:31:15;;;;;;;3.88;1.70;;;14.00;99.90;;;;;;5070183;28;20037;-84
2023/07/31 04:33:41;;;;;;;6.70;2.25;;;14.00;99.90;;;;;;5057044;28;20062;-84
2023/07/31 04:36:07;;;;;;;4.28;1.75;;;14.00;99.90;;;;;;5084161;28;20177;-85
2023/07/31 04:38:32;;;;;;;7.30;2.40;;;14.00;99.90;;;;;;5072323;28;20036;-85
2023/07/31 04:40:58;;;;;;;4.97;2.35;;;14.00;99.90;;;;;;5066149;28;20036;-87
2023/07/31 04:43:24;;;;;;;3.88;2.00;;;14.10;99.90;;;;;;5079583;28;20041;-86
2023/07/31 04:45:50;;;;;;;6.43;1.98;;;14.10;99.90;;;;;;5079786;28;20039;-83
2023/07/31 04:48:16;;;;;;;4.78;1.98;;;14.20;99.90;;;;;;5038612;28;20021;-84
2023/07/31 04:50:42;;;;;;;4.68;2.10;;;14.20;99.90;;;;;;5058490;28;20082;-85
2023/07/31 04:53:08;;;;;;;3.28;2.03;;;14.20;99.90;;;;;;5063608;28;20024;-83
2023/07/31 04:55:34;;;;;;;4.13;1.98;;;14.20;99.90;;;;;;5079872;28;20024;-87
2023/07/31 04:57:59;;;;;;;7.25;2.10;;;14.20;99.90;;;;;;5085740;28;20048;-84
2023/07/31 05:00:25;;;;;;;2.70;1.73;;;14.30;99.90;;;;;;5081143;28;20021;-84
2023/07/31 05:02:51;;;;;;;8.10;2.05;;;14.30;99.90;;;;;;5069059;28;20040;-84
2023/07/31 05:05:17;;;;;;;4.55;1.85;;;14.30;99.90;;;;;;5077687;28;20032;-87
2023/07/31 05:07:43;;;;;;;5.78;1.80;;;14.30;99.90;;;;;;5062943;28;20119;-87
2023/07/31 05:10:09;;;;;;;3.63;1.80;;;14.40;99.90;;;;;;5071526;28;20064;-86
2023/07/31 05:12:34;;;;;;;5.05;2.03;;;14.40;99.90;;;;;;5062383;28;20431;-83
2023/07/31 05:15:00;;;;;;;4.22;1.50;;;14.40;99.90;;;;;;5077390;28;20059;-84
2023/07/31 05:17:26;;;;;;;2.97;1.70;;;14.40;99.90;;;;;;5057801;28;20091;-84
2023/07/31 05:19:52;;;;;;;3.65;1.77;;;14.40;99.90;;;;;;5059348;28;20481;-86
2023/07/31 05:22:17;;;;;;;4.80;2.03;;;14.40;99.90;;;;;;5035240;28;20075;-83
2023/07/31 05:24:43;;;;;;;4.72;1.92;;;14.40;99.90;;;;;;5064047;28;20108;-83
2023/07/31 05:27:09;;;;;;;7.28;2.45;;;14.40;99.90;;;;;;5057576;28;20029;-87
2023/07/31 05:29:35;;;;;;;6.60;1.80;;;14.40;99.90;;;;;;5052316;28;20016;-84
2023/07/31 05:32:01;;;;;;;6.07;1.98;;;14.40;99.90;;;;;;5071351;28;20507;-85
2023/07/31 05:34:27;;;;;;;4.70;1.90;;;14.40;99.90;;;;;;5047613;28;20036;-85
2023/07/31 05:36:53;;;;;;;6.20;2.17;;;14.30;99.90;;;;;;5059252;28;20029;-87
2023/07/31 05:39:19;;;;;;;5.35;2.20;;;14.30;99.90;;;;;;5074102;28;20036;-84
2023/07/31 05:41:45;;;;;;;4.32;1.77;;;14.40;99.90;;;;;;5022209;28;20039;-86
2023/07/31 05:44:11;;;;;;;4.25;2.35;;;14.40;99.90;;;;;;5060344;28;20043;-85
2023/07/31 05:46:37;;;;;;;4.00;1.70;;;14.40;99.90;;;;;;5074116;28;20025;-85
2023/07/31 05:49:02;;;;;;;5.88;2.10;;;14.40;99.90;;;;;;5071899;28;20020;-84
2023/07/31 05:51:28;;;;;;;3.08;1.83;;;14.40;99.90;;;;;;5066227;28;20086;-86
2023/07/31 05:53:54;;;;;;;5.97;1.90;;;14.40;99.90;;;;;;5019656;28;20033;-85
2023/07/31 05:56:20;;;;;;;3.55;1.83;;;14.50;99.90;;;;;;5045152;28;20047;-86
2023/07/31 05:58:45;;;;;;;3.47;2.35;;;14.50;99.90;;;;;;5051502;28;20102;-86
2023/07/31 06:01:11;;;;;;;5.35;2.38;;;14.50;99.90;;;;;;5037156;28;20366;-86
2023/07/31 06:03:37;;;;;;;2.50;1.95;;;14.50;99.90;;;;;;5058878;28;20079;-85
2023/07/31 06:06:06;;;;;;;6.68;2.15;;;14.50;99.90;;;;;;5066192;28;20029;-84
2023/07/31 06:08:41;;;;;;;3.75;1.98;;;14.50;99.90;;;;;;5055018;28;20392;-84
2023/07/31 06:11:10;;;;;;;;;;;14.60;99.90;;;;;;5060135;28;20048;-84
2023/07/31 06:13:36;;;;;;;4.68;1.88;;;14.60;99.90;;;;;;5050643;28;21413;-82
2023/07/31 06:16:05;;;;;;;4.30;2.00;;;14.60;99.90;;;;;;5061012;28;20122;-84
2023/07/31 06:18:32;;;;;;;5.72;2.20;;;14.70;99.90;;;;;;5056617;28;20028;-84
2023/07/31 06:20:58;;;;;;;5.97;2.05;;;14.70;99.90;;;;;;5074845;28;20058;-86
2023/07/31 06:23:24;;;;;;;3.53;2.40;;;14.70;99.90;;;;;;5047196;28;20037;-84
2023/07/31 06:25:50;;;;;;;6.45;2.50;;;14.80;99.90;;;;;;5022968;28;20131;-85
2023/07/31 06:28:15;;;;;;;4.82;2.10;;;14.80;99.90;;;;;;5068070;28;20031;-85
2023/07/31 06:30:43;;;;;;;4.93;2.15;;;14.90;99.90;;;;;;5075245;28;20052;-85
2023/07/31 06:33:09;;;;;;;7.70;2.20;;;15.00;99.90;;;;;;5050218;28;20384;-84
2023/07/31 06:35:36;;;;;;;5.35;1.95;;;15.00;99.90;;;;;;5066605;28;20548;-84
2023/07/31 06:38:02;;;;;;;6.50;1.60;;;15.10;99.90;;;;;;5056304;28;20101;-83
2023/07/31 06:40:28;;;;;;;3.67;2.10;;;15.10;99.90;;;;;;5070374;28;20056;-83
2023/07/31 06:42:54;;;;;;;4.65;2.05;;;15.20;99.90;;;;;;5070376;28;20036;-83
2023/07/31 06:45:20;;;;;;;3.13;1.73;;;15.20;99.90;;;;;;5068851;28;20060;-86
2023/07/31 06:47:46;;;;;;;6.40;2.10;;;15.30;99.90;;;;;;5023664;28;20021;-86
2023/07/31 06:50:11;;;;;;;5.18;2.22;;;15.30;99.90;;;;;;5067563;28;20610;-86
2023/07/31 06:52:37;;;;;;;3.50;2.10;;;15.30;99.90;;;;;;5061687;28;20041;-84
2023/07/31 06:55:21;;;;;;;3.60;2.00;;;15.40;99.90;;;;;;5076645;28;20088;-84
2023/07/31 06:57:48;;;;;;;4.65;2.10;;;15.40;99.90;;;;;;5071375;28;20162;-85
2023/07/31 07:00:14;;;;;;;4.88;2.10;;;15.40;99.90;;;;;;5073454;28;20119;-85
2023/07/31 07:02:40;;;;;;;3.42;2.10;;;15.40;99.90;;;;;;5076826;28;20052;-86
2023/07/31 07:05:08;;;;;;;5.90;2.00;;;15.40;99.90;;;;;;5071165;28;20048;-85
2023/07/31 07:07:33;;;;;;;5.72;2.47;;;15.40;99.90;;;;;;5050791;28;20044;-82
2023/07/31 07:09:59;;;;;;;4.25;2.08;;;15.40;99.90;;;;;;5063541;28;20032;-85
2023/07/31 07:12:26;;;;;;;6.05;2.78;;;15.50;99.90;;;;;;5067686;28;20036;-85
2023/07/31 07:14:52;;;;;;;4.22;1.95;;;15.40;99.90;;;;;;5070395;28;20033;-85
2023/07/31 07:17:19;;;;;;;6.85;1.98;;;15.40;99.90;;;;;;5075351;28;20036;-85
2023/07/31 07:19:45;;;;;;;2.67;1.60;;;15.40;99.90;;;;;;5073749;28;20029;-85
2023/07/31 07:23:18;;;;;;;7.63;2.00;;;15.40;99.90;;;;;;5075286;28;20062;-86
2023/07/31 07:26:16;;;;;;;3.28;2.30;;;15.30;99.90;;;;;;5066518;28;20052;-83
2023/07/31 07:28:45;;;;;;;6.45;2.10;;;15.40;99.90;;;;;;5036328;28;20847;-84
2023/07/31 07:31:10;;;;;;;4.30;1.83;;;15.40;99.90;;;;;;5036879;28;20057;-85
2023/07/31 07:33:36;;;;;;;7.35;2.20;;;15.40;99.90;;;;;;5070125;28;20108;-85
2023/07/31 07:36:02;;;;;;;4.15;2.05;;;15.50;99.90;;;;;;5063655;28;20032;-84
2023/07/31 07:38:28;;;;;;;2.55;1.67;;;15.50;99.90;;;;;;5067326;28;20124;-83
2023/07/31 07:40:54;;;;;;;5.15;2.63;;;15.60;99.90;;;;;;5066002;28;20025;-83
2023/07/31 07:43:19;;;;;;;6.20;2.42;;;15.70;99.90;;;;;;5066104;28;20060;-85
2023/07/31 07:45:45;;;;;;;6.30;2.45;;;15.70;99.90;;;;;;5072928;28;20029;-82
2023/07/31 07:48:11;;;;;;;7.50;2.20;;;15.70;99.90;;;;;;5053319;28;20026;-83
2023/07/31 07:50:39;;;;;;;6.95;1.95;;;15.80;99.90;;;;;;5063762;28;20210;-84
2023/07/31 07:53:05;;;;;;;4.85;2.10;;;15.90;99.90;;;;;;5055236;28;20033;-81
2023/07/31 07:55:30;;;;;;;5.18;1.85;;;15.90;99.90;;;;;;5067801;28;20163;-85
2023/07/31 07:57:56;;;;;;;4.30;2.60;;;16.00;99.90;;;;;;5051478;28;20029;-84
2023/07/31 08:00:22;;;;;;;4.65;2.05;;;16.10;99.90;;;;;;5067620;28;20463;-83
2023/07/31 08:02:48;;;;;;;5.05;2.13;;;16.10;99.90;;;;;;5078660;28;20646;-83
2023/07/31 08:05:13;;;;;;;4.38;2.05;;;16.20;99.90;;;;;;5058657;28;20033;-84
2023/07/31 08:07:39;;;;;;;8.88;2.38;;;16.20;99.90;;;;;;5073057;28;20041;-83
2023/07/31 08:10:05;;;;;;;7.65;2.45;;;16.30;99.90;;;;;;5050293;28;20082;-84
2023/07/31 08:12:31;;;;;;;6.60;2.22;;;16.30;99.90;;;;;;5079629;28;20075;-83
2023/07/31 08:14:57;;;;;;;3.90;2.05;;;16.30;99.90;;;;;;5060867;28;20033;-83
2023/07/31 08:17:23;;;;;;;8.20;2.15;;;16.40;99.90;;;;;;5073003;28;20605;-83
2023/07/31 08:19:48;;;;;;;5.85;2.45;;;16.50;99.90;;;;;;5053806;28;20396;-84
2023/07/31 08:22:14;;;;;;;9.32;2.47;;;16.60;99.90;;;;;;5074373;28;20440;-84
2023/07/31 08:24:40;;;;;;;5.70;2.40;;;16.60;99.90;;;;;;5074158;28;20037;-82
2023/07/31 08:27:06;;;;;;;8.07;2.35;;;16.60;99.90;;;;;;5064241;28;20025;-82
2023/07/31 08:29:32;;;;;;;5.88;2.03;;;16.70;99.90;;;;;;5047057;28;20029;-83
2023/07/31 08:31:57;;;;;;;4.35;1.98;;;16.70;99.90;;;;;;5072865;28;20036;-83
2023/07/31 08:34:23;;;;;;;4.47;2.10;;;16.80;99.90;;;;;;5051227;28;20120;-81
2023/07/31 08:36:49;;;;;;;6.30;2.70;;;16.80;99.90;;;;;;5064797;28;20033;-81
2023/07/31 08:39:14;;;;;;;5.53;1.92;;;16.90;99.90;;;;;;5033537;28;20659;-82
2023/07/31 08:41:40;;;;;;;6.55;2.15;;;17.00;99.90;;;;;;5073076;28;20033;-83
2023/07/31 08:44:07;;;;;;;3.92;2.10;;;17.00;99.90;;;;;;5056209;28;20123;-83
2023/07/31 08:46:34;;;;;;;5.35;2.28;;;17.10;99.90;;;;;;5071880;28;20090;-84
2023/07/31 08:49:02;;;;;;;6.20;2.47;;;17.10;99.90;;;;;;5061792;28;20039;-81
2023/07/31 08:51:29;;;;;;;6.43;2.17;;;17.20;99.90;;;;;;5057879;28;20055;-83
2023/07/31 08:53:55;;;;;;;7.78;2.80;;;17.30;99.90;;;;;;5073511;28;20041;-83
2023/07/31 08:56:21;;;;;;;4.60;2.20;;;17.40;99.90;;;;;;5070328;28;20055;-81
2023/07/31 08:58:48;;;;;;;5.32;2.97;;;17.50;99.90;;;;;;5059340;28;20048;-82
2023/07/31 09:01:15;;;;;;;4.75;2.20;;;17.70;99.90;;;;;;5064788;28;20562;-81
2023/07/31 09:03:42;;;;;;;3.83;2.20;;;18.00;99.90;;;;;;5063332;28;20036;-81
2023/07/31 09:06:09;;;;;;;3.70;2.10;;;18.10;99.90;;;;;;5060273;28;20082;-81
2023/07/31 09:08:35;;;;;;;4.35;2.00;;;18.30;99.90;;;;;;5058241;28;20032;-81
2023/07/31 09:11:11;;;;;;;7.80;2.83;;;18.50;99.90;;;;;;5067575;28;20063;-83
2023/07/31 09:13:53;;;;;;;4.00;1.88;;;18.70;99.90;;;;;;5052677;28;20033;-84
2023/07/31 09:16:31;;;;;;;5.25;2.20;;;18.90;99.90;;;;;;5069220;28;20100;-83
2023/07/31 09:19:03;;;;;;;4.20;2.10;;;19.00;99.90;;;;;;5080672;28;20046;-84
2023/07/31 09:21:28;;;;;;;6.97;2.22;;;19.10;99.90;;;;;;5071847;28;20272;-84
2023/07/31 09:23:57;;;;;;;5.63;2.17;;;19.10;99.90;;;;;;5079839;28;20067;-83
2023/07/31 09:26:30;;;;;;;4.28;2.22;;;19.20;99.90;;;;;;5073842;28;20041;-84
2023/07/31 09:28:57;;;;;;;7.38;2.60;;;19.30;99.90;;;;;;5063418;28;20101;-83
2023/07/31 09:31:42;;;;;;;5.75;2.25;;;19.40;99.90;;;;;;5078661;28;20107;-82
2023/07/31 09:34:09;;;;;;;4.55;1.98;;;19.60;99.90;;;;;;5072563;28;20044;-84
2023/07/31 09:36:46;;;;;;;4.57;1.88;;;19.70;99.90;;;;;;5069968;28;20044;-82
2023/07/31 09:39:13;;;;;;;7.68;2.35;;;19.80;99.90;;;;;;5067948;28;20487;-81
2023/07/31 09:41:42;;;;;;;3.80;1.73;;;19.90;99.90;;;;;;5071885;28;20065;-81
2023/07/31 09:44:08;;;;;;;5.85;3.17;;;20.00;99.90;;;;;;5075716;28;20051;-82
2023/07/31 09:46:40;;;;;;;7.57;2.83;;;20.10;99.90;;;;;;5074370;28;20040;-82
2023/07/31 09:49:14;;;;;;;5.63;2.28;;;20.10;99.90;;;;;;5061629;28;20056;-80
2023/07/31 09:51:42;;;;;;;4.60;2.55;;;20.10;99.90;;;;;;5061327;28;20037;-82
2023/07/31 09:54:16;;;;;;;3.42;2.10;;;20.00;99.90;;;;;;5065274;28;20032;-82
2023/07/31 09:56:48;;;;;;;3.78;2.00;;;19.80;99.90;;;;;;5066417;28;20043;-81
2023/07/31 09:59:16;;;;;;;4.40;2.03;;;19.60;99.90;;;;;;5062821;28;20052;-82
2023/07/31 10:01:43;;;;;;;3.63;1.85;;;19.40;99.90;;;;;;5074609;28;20037;-83
2023/07/31 10:04:10;;;;;;;4.93;2.15;;;19.20;99.90;;;;;;5068421;28;20107;-83
2023/07/31 10:06:37;;;;;;;6.10;1.92;;;19.10;99.90;;;;;;5075837;28;20535;-83
2023/07/31 10:09:08;;;;;;;4.97;2.00;;;18.90;99.90;;;;;;5064032;28;20039;-83
2023/07/31 10:11:51;;;;;;;3.50;1.85;;;18.60;99.90;;;;;;5072532;28;20029;-82
2023/07/31 10:14:21;;;;;;;5.97;2.13;;;18.60;99.90;;;;;;5059162;28;20123;-81
2023/07/31 10:16:48;;;;;;;4.30;2.00;;;18.50;99.90;;;;;;5037774;28;20128;-82
2023/07/31 10:19:14;;;;;;;5.60;2.00;;;18.40;99.90;;;;;;5059407;28;20038;-82
2023/07/31 10:21:42;;;;;;;3.35;2.22;;;18.40;99.90;;;;;;5066340;28;20457;-81
2023/07/31 10:24:09;;;;;;;4.72;1.75;;;18.30;99.90;;;;;;5064298;28;20088;-81
2023/07/31 10:26:37;;;;;;;3.53;1.98;;;18.20;99.90;;;;;;5062664;28;20020;-81
2023/07/31 10:29:07;;;;;;;3.97;1.98;;;18.10;99.90;;;;;;5067552;28;20460;-83
2023/07/31 10:31:33;;;;;;;5.68;2.20;;;18.10;99.90;;;;;;5070209;28;20025;-83
2023/07/31 10:34:00;;;;;;;5.32;2.20;;;18.10;99.90;;;;;;5073350;28;20028;-82
2023/07/31 10:36:27;;;;;;;6.20;2.25;;;18.20;99.90;;;;;;5069142;28;20067;-81
2023/07/31 10:38:52;;;;;;;2.97;1.60;;;18.30;99.90;;;;;;5061990;28;20029;-79
2023/07/31 10:41:18;;;;;;;5.63;2.45;;;18.50;99.90;;;;;;5083360;28;20032;-80
2023/07/31 10:43:47;;;;;;;6.53;2.28;;;18.70;99.90;;;;;;5061246;28;20044;-81
2023/07/31 10:46:13;;;;;;;4.57;2.40;;;18.90;99.90;;;;;;5065756;28;20040;-81
2023/07/31 10:48:41;;;;;;;3.40;2.03;;;19.00;99.90;;;;;;5035436;28;20035;-86
2023/07/31 10:51:12;;;;;;;4.97;1.92;;;19.20;99.90;;;;;;5077525;28;20054;-84
2023/07/31 10:53:40;;;;;;;6.70;1.88;;;19.30;99.90;;;;;;5074137;28;20485;-83
2023/07/31 10:56:08;;;;;;;3.58;2.13;;;19.40;99.90;;;;;;5067200;28;20237;-81
2023/07/31 10:58:34;;;;;;;6.50;2.17;;;19.60;99.90;;;;;;5061350;28;20036;-81
2023/07/31 11:01:03;;;;;;;10.05;4.13;;;19.70;99.90;;;;;;5072612;28;20099;-79
2023/07/31 11:03:49;;;;;;;4.82;2.55;;;19.90;99.90;;;;;;5066026;28;20048;-80
2023/07/31 11:06:18;;;;;;;3.20;1.63;;;20.10;99.90;;;;;;5064611;28;20149;-79
2023/07/31 11:08:46;;;;;;;3.58;1.90;;;20.10;99.90;;;;;;5064354;28;20028;-79
2023/07/31 11:11:17;;;;;;;4.18;1.90;;;20.00;99.90;;;;;;5062108;28;20029;-80
2023/07/31 11:13:52;;;;;;;4.30;1.90;;;20.00;99.90;;;;;;5068297;28;20393;-81
2023/07/31 11:16:23;;;;;;;5.77;2.10;;;19.90;99.90;;;;;;5072267;28;20062;-83
2023/07/31 11:18:49;;;;;;;6.63;1.92;;;19.90;99.90;;;;;;5070451;28;20468;-82
2023/07/31 11:21:16;;;;;;;4.07;2.05;;;19.90;99.90;;;;;;5068937;28;20505;-79
2023/07/31 11:23:46;;;;;;;2.53;1.90;;;19.70;99.90;;;;;;5065956;28;20029;-84
2023/07/31 11:26:12;;;;;;;4.60;2.20;;;19.60;99.90;;;;;;5068517;28;20027;-82
2023/07/31 11:28:38;;;;;;;2.92;2.20;;;19.60;99.90;;;;;;5065159;28;20024;-82
2023/07/31 11:31:04;;;;;;;2.88;2.20;;;19.50;99.90;;;;;;5065575;28;20029;-81
2023/07/31 11:33:30;;;;;;;5.00;2.25;;;19.40;99.90;;;;;;5068964;28;20116;-82
2023/07/31 11:35:57;;;;;;;6.25;2.22;;;19.40;99.90;;;;;;5068572;28;20016;-83
2023/07/31 11:38:30;;;;;;;5.53;2.00;;;19.30;99.90;;;;;;5076803;28;20473;-81
2023/07/31 11:40:59;;;;;;;3.15;1.73;;;19.20;99.90;;;;;;5069906;28;20032;-81
2023/07/31 11:43:43;;;;;;;4.07;1.90;;;19.10;99.90;;;;;;5064289;28;20129;-80
2023/07/31 11:46:09;;;;;;;3.55;1.95;;;19.10;99.90;;;;;;5059406;28;20052;-83
2023/07/31 11:48:37;;;;;;;4.38;2.17;;;19.20;99.90;;;;;;5051881;28;20021;-82
2023/07/31 11:51:05;;;;;;;4.38;2.10;;;19.10;99.90;;;;;;5072878;28;20108;-82
2023/07/31 11:53:36;;;;;;;5.30;2.15;;;19.20;99.90;;;;;;5069541;28;20060;-81
2023/07/31 11:56:06;;;;;;;4.97;1.90;;;19.20;99.90;;;;;;5066387;28;20105;-80
2023/07/31 11:58:34;;;;;;;5.00;1.90;;;19.10;99.90;;;;;;5068246;28;20029;-82
2023/07/31 12:01:00;;;;;;;2.10;1.80;;;19.10;99.90;;;;;;5072595;28;20045;-80
2023/07/31 12:03:26;;;;;;;5.30;2.17;;;19.10;99.90;;;;;;5071854;28;20148;-82
2023/07/31 12:05:55;;;;;;;3.92;1.95;;;19.20;99.90;;;;;;5067336;28;20440;-82
2023/07/31 12:08:23;;;;;;;5.78;2.20;;;19.30;99.90;;;;;;5061617;28;20169;-81
2023/07/31 12:10:50;;;;;;;4.00;2.03;;;19.30;99.90;;;;;;5067249;28;20066;-81
2023/07/31 12:13:26;;;;;;;4.47;2.25;;;19.40;99.90;;;;;;5075172;28;20033;-82
2023/07/31 12:16:01;;;;;;;4.25;2.08;;;19.30;99.90;;;;;;5071410;28;20029;-82
2023/07/31 12:18:29;;;;;;;4.18;1.95;;;19.20;99.90;;;;;;5074404;28;20515;-81
2023/07/31 12:20:56;;;;;;;3.17;1.85;;;19.10;99.90;;;;;;5072328;28;20044;-83
2023/07/31 12:23:33;;;;;;;4.28;2.17;;;19.00;99.90;;;;;;5050885;28;20033;-82
2023/07/31 12:26:07;;;;;;;5.35;2.33;;;19.00;99.90;;;;;;5066865;28;20025;-80
2023/07/31 12:28:42;;;;;;;3.58;1.88;;;19.00;99.90;;;;;;5071756;28;20082;-82
2023/07/31 12:31:20;;;;;;;3.67;1.80;;;19.20;99.90;;;;;;5071259;28;20697;-84
2023/07/31 12:33:47;;;;;;;3.30;1.92;;;19.30;99.90;;;;;;5065010;28;20041;-82
2023/07/31 12:36:14;;;;;;;3.85;1.77;;;19.40;99.90;;;;;;5072784;28;20027;-82
2023/07/31 12:38:41;;;;;;;3.35;1.95;;;19.50;99.90;;;;;;5065014;28;20120;-84
2023/07/31 12:41:07;;;;;;;7.22;2.50;;;19.50;99.90;;;;;;5075049;28;20029;-82
2023/07/31 12:43:34;;;;;;;7.28;2.13;;;19.40;99.90;;;;;;5078394;28;20028;-80
2023/07/31 12:46:00;;;;;;;4.97;2.45;;;19.40;99.90;;;;;;5070465;28;20027;-80
2023/07/31 12:48:26;;;;;;;3.20;2.20;;;19.20;99.90;;;;;;5063298;28;20473;-82
2023/07/31 12:50:51;;;;;;;4.65;2.40;;;19.20;99.90;;;;;;5067675;28;20055;-81